sensor_id;sensor_type;location;lat;lon;timestamp;temperature;humidity
4960;DHT22;2495;48.200;11.532;2022-10-22T00:01:33;17.30;91.40
4960;DHT22;2495;48.200;11.532;2022-10-22T00:06:33;17.20;91.00
4960;DHT22;2495;48.200;11.532;2022-10-22T00:11:35;17.10;90.90
4960;DHT22;2495;48.200;11.532;2022-10-22T00:16:36;17.00;91.00
4960;DHT22;2495;48.200;11.532;2022-10-22T00:21:38;16.80;91.00
4960;DHT22;2495;48.200;11.532;2022-10-22T00:26:39;17.10;91.40
4960;DHT22;2495;48.200;11.532;2022-10-22T00:31:40;17.10;91.10
4960;DHT22;2495;48.200;11.532;2022-10-22T00:36:42;17.00;91.00
4960;DHT22;2495;48.200;11.532;2022-10-22T00:41:43;16.90;91.10
4960;DHT22;2495;48.200;11.532;2022-10-22T00:46:44;16.90;91.10
4960;DHT22;2495;48.200;11.532;2022-10-22T00:51:46;16.70;91.30
4960;DHT22;2495;48.200;11.532;2022-10-22T00:56:48;16.70;91.10
4960;DHT22;2495;48.200;11.532;2022-10-22T01:01:56;16.70;91.20
4960;DHT22;2495;48.200;11.532;2022-10-22T02:20:51;16.20;92.40
4960;DHT22;2495;48.200;11.532;2022-10-22T03:06:02;16.60;92.50
4960;DHT22;2495;48.200;11.532;2022-10-22T03:17:36;16.70;92.60
4960;DHT22;2495;48.200;11.532;2022-10-22T03:40:48;16.40;92.50
4960;DHT22;2495;48.200;11.532;2022-10-22T03:45:50;16.20;92.20
4960;DHT22;2495;48.200;11.532;2022-10-22T03:50:51;16.00;92.10
4960;DHT22;2495;48.200;11.532;2022-10-22T03:55:52;15.90;92.20
4960;DHT22;2495;48.200;11.532;2022-10-22T04:01:02;15.90;92.30
4960;DHT22;2495;48.200;11.532;2022-10-22T04:11:42;15.90;92.70
4960;DHT22;2495;48.200;11.532;2022-10-22T04:22:37;15.90;92.20
4960;DHT22;2495;48.200;11.532;2022-10-22T05:31:46;15.20;92.00
4960;DHT22;2495;48.200;11.532;2022-10-22T06:10:47;14.80;92.40
4960;DHT22;2495;48.200;11.532;2022-10-22T11:04:20;23.30;75.50
4960;DHT22;2495;48.200;11.532;2022-10-22T11:09:23;25.30;71.40
4960;DHT22;2495;48.200;11.532;2022-10-22T11:14:39;27.70;64.00
4960;DHT22;2495;48.200;11.532;2022-10-22T11:20:00;27.40;63.60
4960;DHT22;2495;48.200;11.532;2022-10-22T11:30:22;26.80;58.10
4960;DHT22;2495;48.200;11.532;2022-10-22T11:35:23;25.50;61.40
4960;DHT22;2495;48.200;11.532;2022-10-22T11:45:39;25.00;60.50
4960;DHT22;2495;48.200;11.532;2022-10-22T11:50:49;23.80;62.20
4960;DHT22;2495;48.200;11.532;2022-10-22T11:55:53;23.40;64.40
4960;DHT22;2495;48.200;11.532;2022-10-22T12:01:15;22.90;65.70
4960;DHT22;2495;48.200;11.532;2022-10-22T12:32:33;24.20;61.30
4960;DHT22;2495;48.200;11.532;2022-10-22T12:37:34;23.80;64.60
4960;DHT22;2495;48.200;11.532;2022-10-22T12:42:35;23.80;62.30
4960;DHT22;2495;48.200;11.532;2022-10-22T12:47:37;23.10;62.20
4960;DHT22;2495;48.200;11.532;2022-10-22T12:52:44;22.90;63.30
4960;DHT22;2495;48.200;11.532;2022-10-22T12:57:47;22.70;64.40
4960;DHT22;2495;48.200;11.532;2022-10-22T13:02:49;22.50;65.30
4960;DHT22;2495;48.200;11.532;2022-10-22T13:08:00;22.50;64.40
4960;DHT22;2495;48.200;11.532;2022-10-22T13:12:56;22.90;64.40
